Time;durP1;ratioP1;P1;durP2;ratioP2;P2;SDS_P1;SDS_P2;PMS_P1;PMS_P2;Temp;Humidity;BMP_temperature;BMP_pressure;BME280_temperature;BME280_humidity;BME280_pressure;Samples;Min_cycle;Max_cycle;Signal;HPM_P1;HPM_P2
2022/05/02 00:00:10;;;;;;;9.45;5.57;;;;;;;;;;4935192;29;20039;-61
2022/05/02 00:02:37;;;;;;;7.07;5.40;;;;;;;;;;4933441;28;20553;-60
2022/05/02 00:05:04;;;;;;;8.30;5.63;;;;;;;;;;4951292;28;20031;-61
2022/05/02 00:07:29;;;;;;;8.88;5.15;;;;;;;;;;4950402;28;20039;-60
2022/05/02 00:09:55;;;;;;;10.05;5.63;;;;;;;;;;4950943;28;20041;-60
2022/05/02 00:12:20;;;;;;;7.15;5.60;;;;;;;;;;4947102;28;20138;-61
2022/05/02 00:14:46;;;;;;;7.15;5.25;;;;;;;;;;4948305;28;20071;-58
2022/05/02 00:17:11;;;;;;;8.98;5.53;;;;;;;;;;4946839;28;20046;-59
2022/05/02 00:19:37;;;;;;;9.25;5.60;;;;;;;;;;4948360;28;20031;-61
2022/05/02 00:22:02;;;;;;;8.02;5.07;;;;;;;;;;4944560;28;20133;-61
2022/05/02 00:24:28;;;;;;;8.45;4.97;;;;;;;;;;4948310;28;20709;-60
2022/05/02 00:26:53;;;;;;;8.90;5.05;;;;;;;;;;4947349;28;20051;-60
2022/05/02 00:29:19;;;;;;;7.22;5.32;;;;;;;;;;4945620;28;20117;-59
2022/05/02 00:31:45;;;;;;;9.73;5.57;;;;;;;;;;4949111;28;20496;-60
2022/05/02 00:34:12;;;;;;;8.70;4.90;;;;;;;;;;4952369;28;20119;-60
2022/05/02 00:36:37;;;;;;;9.70;5.43;;;;;;;;;;4949424;28;20389;-60
2022/05/02 00:39:03;;;;;;;7.30;5.65;;;;;;;;;;4950534;28;20142;-60
2022/05/02 00:41:28;;;;;;;7.63;5.70;;;;;;;;;;4946565;28;20062;-60
2022/05/02 00:43:54;;;;;;;7.93;5.35;;;;;;;;;;4949647;28;20035;-60
2022/05/02 00:46:22;;;;;;;8.90;5.53;;;;;;;;;;4955777;28;20062;-60
2022/05/02 00:48:48;;;;;;;6.85;5.55;;;;;;;;;;4951417;28;20039;-60
2022/05/02 00:51:17;;;;;;;8.25;4.85;;;;;;;;;;4957426;28;20051;-60
2022/05/02 00:53:46;;;;;;;7.72;4.88;;;;;;;;;;4949374;28;20110;-63
2022/05/02 00:56:12;;;;;;;9.38;5.43;;;;;;;;;;4980589;23;20050;-64
2022/05/02 00:58:37;;;;;;;8.63;5.38;;;;;;;;;;4989381;23;20055;-60
2022/05/02 01:01:04;;;;;;;9.55;5.32;;;;;;;;;;4966534;28;20047;-51
2022/05/02 01:03:30;;;;;;;7.18;5.10;;;;;;;;;;4965078;28;20050;-48
2022/05/02 01:08:40;;;;;;;7.78;5.47;;;;;;;;;;4962823;28;20228;-48
2022/05/02 01:11:06;;;;;;;6.53;5.18;;;;;;;;;;4964509;28;20507;-46
2022/05/02 01:13:42;;;;;;;9.38;5.82;;;;;;;;;;4965564;28;20049;-51
2022/05/02 01:16:19;;;;;;;9.65;5.53;;;;;;;;;;4965037;28;20049;-51
2022/05/02 01:18:49;;;;;;;6.75;5.55;;;;;;;;;;4962925;28;20621;-51
2022/05/02 01:21:19;;;;;;;10.98;5.85;;;;;;;;;;4965416;28;20130;-52
2022/05/02 01:23:48;;;;;;;8.60;5.45;;;;;;;;;;4965174;28;20373;-52
2022/05/02 01:26:14;;;;;;;10.23;5.80;;;;;;;;;;4965560;28;20429;-52
2022/05/02 01:28:41;;;;;;;8.73;6.10;;;;;;;;;;4965894;28;20022;-50
2022/05/02 01:31:07;;;;;;;8.38;5.60;;;;;;;;;;4964335;28;20066;-50
2022/05/02 01:33:34;;;;;;;6.97;5.57;;;;;;;;;;4961488;28;20097;-50
2022/05/02 01:35:59;;;;;;;8.20;5.38;;;;;;;;;;4964538;28;20047;-52
2022/05/02 01:38:25;;;;;;;8.38;5.88;;;;;;;;;;4966393;28;20031;-50
2022/05/02 01:40:50;;;;;;;6.88;5.25;;;;;;;;;;4966907;28;20077;-52
2022/05/02 01:43:16;;;;;;;9.60;5.57;;;;;;;;;;4966114;28;20137;-52
2022/05/02 01:45:42;;;;;;;8.63;5.63;;;;;;;;;;4966547;28;20050;-58
2022/05/02 01:48:08;;;;;;;7.88;5.93;;;;;;;;;;4966231;28;20046;-57
2022/05/02 01:50:33;;;;;;;8.63;5.45;;;;;;;;;;4966347;28;20040;-52
2022/05/02 01:52:58;;;;;;;11.00;6.00;;;;;;;;;;4967728;28;20361;-52
2022/05/02 01:55:24;;;;;;;10.50;6.15;;;;;;;;;;4966319;28;20070;-52
2022/05/02 01:57:49;;;;;;;7.88;5.75;;;;;;;;;;4965007;28;20137;-48
2022/05/02 02:00:15;;;;;;;13.18;6.50;;;;;;;;;;4965589;28;20054;-52
2022/05/02 02:02:40;;;;;;;11.23;5.70;;;;;;;;;;4964323;28;20053;-53
2022/05/02 02:07:50;;;;;;;9.50;5.75;;;;;;;;;;4964919;28;20137;-50
2022/05/02 02:10:15;;;;;;;8.75;6.20;;;;;;;;;;4966936;28;20134;-48
2022/05/02 02:12:41;;;;;;;9.80;5.95;;;;;;;;;;4964890;28;20053;-47
2022/05/02 02:15:07;;;;;;;11.60;5.72;;;;;;;;;;4967205;28;20052;-52
2022/05/02 02:17:32;;;;;;;8.38;6.07;;;;;;;;;;4964729;28;20492;-51
2022/05/02 02:19:58;;;;;;;7.85;5.72;;;;;;;;;;4965984;28;20133;-54
2022/05/02 02:22:24;;;;;;;9.90;6.28;;;;;;;;;;4964416;28;20416;-49
2022/05/02 02:24:49;;;;;;;11.10;6.38;;;;;;;;;;4966151;28;20062;-48
2022/05/02 02:27:15;;;;;;;7.90;6.10;;;;;;;;;;4963611;28;20232;-53
2022/05/02 02:29:41;;;;;;;8.23;6.05;;;;;;;;;;4964129;28;20129;-48
2022/05/02 02:32:07;;;;;;;11.13;6.00;;;;;;;;;;4963638;28;20031;-60
2022/05/02 02:34:33;;;;;;;8.52;5.95;;;;;;;;;;4965100;28;20064;-60
2022/05/02 02:36:58;;;;;;;8.57;6.32;;;;;;;;;;4965539;28;20054;-60
2022/05/02 02:39:23;;;;;;;10.70;6.20;;;;;;;;;;4964329;28;20059;-62
2022/05/02 02:41:49;;;;;;;7.85;6.07;;;;;;;;;;4965035;28;20153;-60
2022/05/02 02:44:15;;;;;;;9.75;6.05;;;;;;;;;;4965884;28;20031;-62
2022/05/02 02:46:40;;;;;;;8.02;5.45;;;;;;;;;;4964344;28;20035;-63
2022/05/02 02:49:05;;;;;;;9.38;6.05;;;;;;;;;;4969359;28;20062;-62
2022/05/02 02:51:31;;;;;;;13.80;6.45;;;;;;;;;;4969255;28;20085;-62
2022/05/02 02:53:56;;;;;;;10.45;5.95;;;;;;;;;;4968018;28;20153;-62
2022/05/02 02:56:22;;;;;;;9.07;6.13;;;;;;;;;;4969222;28;20423;-61
2022/05/02 02:58:47;;;;;;;8.18;6.15;;;;;;;;;;4968118;28;20053;-62
2022/05/02 03:01:13;;;;;;;9.85;6.25;;;;;;;;;;4967352;28;20109;-62
2022/05/02 03:03:39;;;;;;;12.02;6.18;;;;;;;;;;4965662;28;20457;-62
2022/05/02 03:06:05;;;;;;;9.55;5.43;;;;;;;;;;4968064;28;20121;-62
2022/05/02 03:08:36;;;;;;;12.95;6.20;;;;;;;;;;4966103;28;20046;-62
2022/05/02 03:11:02;;;;;;;8.88;5.95;;;;;;;;;;4966136;28;20050;-63
2022/05/02 03:13:28;;;;;;;7.25;5.78;;;;;;;;;;4967777;28;20078;-62
2022/05/02 03:15:54;;;;;;;8.18;6.07;;;;;;;;;;4968163;28;20063;-61
2022/05/02 03:18:20;;;;;;;11.18;5.85;;;;;;;;;;4964953;28;20550;-61
2022/05/02 03:20:45;;;;;;;10.25;5.78;;;;;;;;;;4968051;28;20052;-61
2022/05/02 03:23:11;;;;;;;9.38;6.35;;;;;;;;;;4968926;28;20113;-62
2022/05/02 03:25:36;;;;;;;13.90;5.93;;;;;;;;;;4968320;28;20035;-63
2022/05/02 03:28:02;;;;;;;8.45;6.40;;;;;;;;;;4968070;28;20420;-63
2022/05/02 03:30:27;;;;;;;10.35;6.55;;;;;;;;;;4969614;28;20484;-63
2022/05/02 03:32:53;;;;;;;9.07;6.13;;;;;;;;;;4967776;28;20130;-62
2022/05/02 03:35:18;;;;;;;11.18;6.15;;;;;;;;;;4969500;28;20037;-62
2022/05/02 03:37:44;;;;;;;8.63;6.30;;;;;;;;;;4967481;28;20145;-62
2022/05/02 03:40:09;;;;;;;10.20;6.00;;;;;;;;;;4969192;28;20043;-62
2022/05/02 03:42:36;;;;;;;9.80;6.00;;;;;;;;;;4968310;28;20039;-62
2022/05/02 03:45:01;;;;;;;10.60;6.40;;;;;;;;;;4968797;28;20050;-62
2022/05/02 03:47:26;;;;;;;8.05;5.70;;;;;;;;;;4967379;28;20101;-63
2022/05/02 03:49:52;;;;;;;9.82;6.05;;;;;;;;;;4966872;28;20042;-63
2022/05/02 03:52:17;;;;;;;8.93;6.07;;;;;;;;;;4966430;28;20061;-62
2022/05/02 03:54:43;;;;;;;7.28;5.82;;;;;;;;;;4966676;28;20050;-62
2022/05/02 03:57:08;;;;;;;11.90;6.10;;;;;;;;;;4968256;28;20450;-62
2022/05/02 03:59:34;;;;;;;11.00;6.32;;;;;;;;;;4966051;28;20100;-63
2022/05/02 04:01:59;;;;;;;9.02;6.15;;;;;;;;;;4967261;28;20468;-63
2022/05/02 04:04:24;;;;;;;9.30;5.82;;;;;;;;;;4967636;28;20063;-63
2022/05/02 04:06:50;;;;;;;10.00;6.07;;;;;;;;;;4967741;28;20038;-63
2022/05/02 04:09:15;;;;;;;8.40;5.85;;;;;;;;;;4968110;28;20438;-63
2022/05/02 04:11:41;;;;;;;8.52;5.43;;;;;;;;;;4966794;28;20082;-62
2022/05/02 04:14:07;;;;;;;11.75;5.85;;;;;;;;;;4970091;28;20117;-62
2022/05/02 04:16:32;;;;;;;7.32;6.03;;;;;;;;;;4965998;28;20128;-62
2022/05/02 04:18:58;;;;;;;6.85;5.78;;;;;;;;;;4966938;28;20053;-62
2022/05/02 04:21:23;;;;;;;8.25;5.70;;;;;;;;;;4966644;28;20511;-62
2022/05/02 04:23:49;;;;;;;6.75;5.43;;;;;;;;;;4966386;28;20059;-61
2022/05/02 04:26:14;;;;;;;7.68;5.80;;;;;;;;;;4967640;28;20133;-61
2022/05/02 04:28:40;;;;;;;9.98;6.05;;;;;;;;;;4966624;28;20027;-61
2022/05/02 04:31:05;;;;;;;10.75;5.60;;;;;;;;;;4967909;28;20074;-62
2022/05/02 04:33:31;;;;;;;8.20;5.88;;;;;;;;;;4967348;28;20547;-61
2022/05/02 04:35:56;;;;;;;8.75;5.75;;;;;;;;;;4968493;28;20460;-61
2022/05/02 04:38:22;;;;;;;7.18;5.65;;;;;;;;;;4969009;28;20033;-61
2022/05/02 04:40:47;;;;;;;8.45;5.65;;;;;;;;;;4970762;28;20034;-63
2022/05/02 04:43:13;;;;;;;8.43;6.35;;;;;;;;;;4969029;28;20050;-63
2022/05/02 04:45:39;;;;;;;8.57;5.57;;;;;;;;;;4969570;28;20046;-63
2022/05/02 04:48:05;;;;;;;10.27;5.75;;;;;;;;;;4966958;28;20042;-63
2022/05/02 04:50:30;;;;;;;8.55;5.90;;;;;;;;;;4967554;28;20042;-63
2022/05/02 04:52:56;;;;;;;9.48;6.20;;;;;;;;;;4966864;28;20158;-62
2022/05/02 04:55:22;;;;;;;9.88;6.03;;;;;;;;;;4966520;28;20047;-62
2022/05/02 04:57:47;;;;;;;7.95;5.97;;;;;;;;;;4964756;28;20676;-62
2022/05/02 05:00:16;;;;;;;7.65;6.40;;;;;;;;;;4966571;28;20216;-62
2022/05/02 05:02:41;;;;;;;9.85;6.57;;;;;;;;;;4967111;28;20101;-62
2022/05/02 05:05:07;;;;;;;9.38;5.97;;;;;;;;;;4966717;28;20349;-61
2022/05/02 05:07:35;;;;;;;7.57;5.85;;;;;;;;;;4966759;28;20149;-61
2022/05/02 05:10:00;;;;;;;8.43;6.13;;;;;;;;;;4948379;28;20133;-61
2022/05/02 05:12:35;;;;;;;9.00;6.13;;;;;;;;;;4967798;28;20170;-62
2022/05/02 05:18:14;;;;;;;8.95;6.07;;;;;;;;;;4965609;28;20065;-54
2022/05/02 05:20:59;;;;;;;9.50;6.22;;;;;;;;;;4967191;28;20035;-57
2022/05/02 05:23:52;;;;;;;8.63;6.53;;;;;;;;;;4964453;28;20027;-56
2022/05/02 05:26:35;;;;;;;8.93;6.25;;;;;;;;;;4966559;28;21090;-54
2022/05/02 05:29:19;;;;;;;7.97;6.35;;;;;;;;;;4966409;28;20431;-55
2022/05/02 05:32:06;;;;;;;8.75;6.28;;;;;;;;;;4964834;28;20055;-54
2022/05/02 05:34:56;;;;;;;13.07;7.10;;;;;;;;;;4966699;28;20042;-55
2022/05/02 05:37:53;;;;;;;8.52;5.82;;;;;;;;;;4966687;28;20125;-56
2022/05/02 05:40:36;;;;;;;10.70;6.05;;;;;;;;;;4964845;28;20058;-54
2022/05/02 05:43:13;;;;;;;9.93;6.50;;;;;;;;;;4964727;28;20048;-54
2022/05/02 05:45:57;;;;;;;9.75;6.20;;;;;;;;;;4965217;28;20425;-53
2022/05/02 05:48:38;;;;;;;9.35;6.40;;;;;;;;;;4964944;28;20047;-54
2022/05/02 05:51:28;;;;;;;9.38;6.32;;;;;;;;;;4964726;28;20046;-57
2022/05/02 05:54:18;;;;;;;6.78;6.07;;;;;;;;;;4963854;28;20061;-54
2022/05/02 05:57:07;;;;;;;9.98;6.53;;;;;;;;;;4964206;28;20047;-54
2022/05/02 05:59:41;;;;;;;9.68;7.20;;;;;;;;;;4965539;28;20113;-55
2022/05/02 06:02:07;;;;;;;9.35;6.70;;;;;;;;;;4978616;28;20468;-54
2022/05/02 06:04:35;;;;;;;9.02;6.32;;;;;;;;;;4964543;28;20117;-53
2022/05/02 06:07:02;;;;;;;8.68;6.40;;;;;;;;;;4966048;28;20097;-53
2022/05/02 06:09:29;;;;;;;10.93;6.18;;;;;;;;;;4964676;28;20063;-53
2022/05/02 06:11:57;;;;;;;8.43;6.20;;;;;;;;;;4966406;28;20097;-53
2022/05/02 06:14:27;;;;;;;8.02;6.43;;;;;;;;;;4966478;28;20035;-54
2022/05/02 06:19:40;;;;;;;10.30;6.47;;;;;;;;;;4965426;28;20538;-55
2022/05/02 06:22:07;;;;;;;8.75;6.25;;;;;;;;;;4965607;28;20059;-54
2022/05/02 06:24:34;;;;;;;9.63;5.90;;;;;;;;;;4969676;28;20063;-53
2022/05/02 06:27:01;;;;;;;12.38;6.40;;;;;;;;;;4970425;28;20449;-52
2022/05/02 06:29:27;;;;;;;12.73;6.25;;;;;;;;;;4969778;28;20121;-53
2022/05/02 06:31:55;;;;;;;16.98;6.60;;;;;;;;;;4972799;28;20324;-53
2022/05/02 06:34:25;;;;;;;17.13;6.47;;;;;;;;;;4971705;28;20047;-54
2022/05/02 06:36:54;;;;;;;13.70;6.13;;;;;;;;;;4958524;28;20047;-54
2022/05/02 06:39:45;;;;;;;13.10;6.25;;;;;;;;;;4961424;28;20645;-53
2022/05/02 06:42:16;;;;;;;11.40;6.18;;;;;;;;;;4969751;28;20050;-53
2022/05/02 06:44:57;;;;;;;11.25;5.65;;;;;;;;;;4968330;28;20118;-54
2022/05/02 06:47:37;;;;;;;10.02;6.07;;;;;;;;;;4968811;28;20066;-53
2022/05/02 06:50:05;;;;;;;9.82;5.70;;;;;;;;;;4967538;28;20041;-55
2022/05/02 06:52:33;;;;;;;17.20;5.35;;;;;;;;;;4969067;28;20354;-52
2022/05/02 06:55:10;;;;;;;13.63;5.43;;;;;;;;;;4969532;28;20196;-56
2022/05/02 06:58:11;;;;;;;9.00;5.18;;;;;;;;;;4969314;28;20054;-56
2022/05/02 07:00:47;;;;;;;7.93;5.32;;;;;;;;;;4968714;28;20049;-52
2022/05/02 07:03:36;;;;;;;13.63;6.93;;;;;;;;;;4969061;28;20050;-54
2022/05/02 07:06:26;;;;;;;12.93;5.50;;;;;;;;;;4968718;28;20081;-55
2022/05/02 07:09:00;;;;;;;11.60;5.70;;;;;;;;;;4967230;28;20071;-54
2022/05/02 07:11:43;;;;;;;8.25;5.28;;;;;;;;;;4966321;28;20360;-53
2022/05/02 07:14:35;;;;;;;10.57;5.60;;;;;;;;;;4969127;28;20632;-54
2022/05/02 07:17:07;;;;;;;11.10;5.75;;;;;;;;;;4967633;28;20282;-55
2022/05/02 07:20:04;;;;;;;9.93;5.45;;;;;;;;;;4969528;28;20514;-53
2022/05/02 07:22:35;;;;;;;7.45;5.40;;;;;;;;;;4966821;28;20187;-52
2022/05/02 07:25:13;;;;;;;7.88;4.78;;;;;;;;;;4968141;28;20066;-53
2022/05/02 07:28:03;;;;;;;8.60;4.88;;;;;;;;;;4966492;28;20047;-53
2022/05/02 07:30:29;;;;;;;7.47;5.07;;;;;;;;;;4968746;28;20133;-55
2022/05/02 07:32:55;;;;;;;9.75;4.65;;;;;;;;;;4968839;28;20085;-54
2022/05/02 07:35:21;;;;;;;7.03;4.75;;;;;;;;;;4968914;28;20031;-55
2022/05/02 07:37:48;;;;;;;11.88;4.30;;;;;;;;;;4969531;28;20075;-51
2022/05/02 07:40:19;;;;;;;9.75;4.50;;;;;;;;;;4968810;28;20047;-50
2022/05/02 07:42:45;;;;;;;5.82;3.97;;;;;;;;;;4967825;28;20057;-54
2022/05/02 07:45:13;;;;;;;7.57;4.10;;;;;;;;;;4968259;28;20061;-54
2022/05/02 07:47:42;;;;;;;6.63;4.30;;;;;;;;;;4969617;28;20070;-52
2022/05/02 07:50:09;;;;;;;6.43;3.60;;;;;;;;;;4968863;28;20034;-55
2022/05/02 07:52:39;;;;;;;7.03;4.30;;;;;;;;;;4968550;28;20039;-56
2022/05/02 07:55:07;;;;;;;8.73;4.60;;;;;;;;;;4968636;28;20043;-56
2022/05/02 07:57:36;;;;;;;6.03;3.55;;;;;;;;;;4968708;28;20180;-56
2022/05/02 08:00:04;;;;;;;8.10;3.78;;;;;;;;;;4967282;28;20074;-54
2022/05/02 08:02:30;;;;;;;6.65;3.95;;;;;;;;;;4966763;28;20109;-55
2022/05/02 08:04:57;;;;;;;5.82;4.38;;;;;;;;;;4964873;28;20031;-54
2022/05/02 08:07:32;;;;;;;12.65;4.88;;;;;;;;;;4966904;28;20046;-54
2022/05/02 08:10:35;;;;;;;10.60;4.82;;;;;;;;;;4967059;28;20043;-53
2022/05/02 08:13:26;;;;;;;6.75;4.10;;;;;;;;;;4967058;28;20447;-52
2022/05/02 08:16:07;;;;;;;5.80;4.10;;;;;;;;;;4967679;28;20059;-54
2022/05/02 08:18:42;;;;;;;9.35;4.78;;;;;;;;;;4966830;28;20051;-53
2022/05/02 08:21:37;;;;;;;8.75;4.68;;;;;;;;;;4969088;28;20438;-52
2022/05/02 08:27:17;;;;;;;6.20;4.25;;;;;;;;;;4967044;28;20109;-54
2022/05/02 08:30:01;;;;;;;7.00;5.28;;;;;;;;;;4968093;28;20137;-53
2022/05/02 08:32:34;;;;;;;6.85;4.68;;;;;;;;;;4968432;28;20130;-52
2022/05/02 08:35:07;;;;;;;8.18;5.13;;;;;;;;;;4968843;28;20023;-54
2022/05/02 08:38:07;;;;;;;7.63;4.70;;;;;;;;;;4983252;28;20047;-55
2022/05/02 08:41:00;;;;;;;9.65;5.25;;;;;;;;;;4947051;28;20050;-56
2022/05/02 08:43:47;;;;;;;7.50;4.55;;;;;;;;;;4966386;28;20047;-55
2022/05/02 08:46:29;;;;;;;7.85;5.13;;;;;;;;;;4966674;28;20161;-57
2022/05/02 08:52:28;;;;;;;10.25;4.82;;;;;;;;;;4965334;28;20140;-56
2022/05/02 08:55:08;;;;;;;10.50;4.38;;;;;;;;;;4966654;28;20157;-54
2022/05/02 08:58:21;;;;;;;6.07;4.40;;;;;;;;;;4967808;28;20053;-52
2022/05/02 09:01:01;;;;;;;8.57;4.82;;;;;;;;;;4921877;28;20044;-56
2022/05/02 09:03:53;;;;;;;8.40;4.20;;;;;;;;;;4966641;28;20109;-56
2022/05/02 09:06:19;;;;;;;8.50;4.60;;;;;;;;;;4965535;28;20054;-55
2022/05/02 09:09:15;;;;;;;7.63;4.18;;;;;;;;;;4962929;28;20050;-55
2022/05/02 09:12:10;;;;;;;9.18;4.13;;;;;;;;;;4965054;28;20105;-53
2022/05/02 09:15:13;;;;;;;10.32;4.28;;;;;;;;;;4931103;28;20051;-56
2022/05/02 09:18:03;;;;;;;6.90;3.50;;;;;;;;;;4964836;28;20062;-52
2022/05/02 09:20:34;;;;;;;7.68;3.85;;;;;;;;;;4964244;28;20050;-53
2022/05/02 09:23:02;;;;;;;7.30;3.60;;;;;;;;;;4965175;28;20049;-51
2022/05/02 09:26:05;;;;;;;5.07;3.85;;;;;;;;;;4964736;28;20046;-53
2022/05/02 09:28:49;;;;;;;6.38;3.88;;;;;;;;;;4966252;28;20049;-50
2022/05/02 09:31:14;;;;;;;6.90;3.67;;;;;;;;;;4963948;28;20085;-53
2022/05/02 09:34:16;;;;;;;5.07;3.95;;;;;;;;;;4967892;28;20411;-53
2022/05/02 09:37:01;;;;;;;8.20;3.88;;;;;;;;;;4947412;28;20116;-50
2022/05/02 09:39:46;;;;;;;6.93;3.70;;;;;;;;;;4965943;28;20043;-51
2022/05/02 09:42:41;;;;;;;7.15;3.95;;;;;;;;;;4953408;28;20047;-52
2022/05/02 09:51:47;;;;;;;8.57;4.10;;;;;;;;;;4958193;28;20047;-54
2022/05/02 09:58:14;;;;;;;7.03;3.63;;;;;;;;;;4888169;29;20569;-56
2022/05/02 10:01:11;;;;;;;6.65;3.65;;;;;;;;;;4887782;29;20135;-54
2022/05/02 10:04:01;;;;;;;6.57;3.72;;;;;;;;;;4969824;28;20557;-55
2022/05/02 10:06:50;;;;;;;8.02;4.20;;;;;;;;;;4956067;28;20142;-58
2022/05/02 10:09:49;;;;;;;5.70;3.70;;;;;;;;;;4969113;28;20054;-56
2022/05/02 10:12:26;;;;;;;6.45;3.80;;;;;;;;;;4968798;28;20047;-55
2022/05/02 10:15:10;;;;;;;5.70;3.88;;;;;;;;;;4969331;28;20054;-53
2022/05/02 10:17:54;;;;;;;7.28;4.00;;;;;;;;;;4966911;28;20100;-56
2022/05/02 10:20:21;;;;;;;9.60;3.70;;;;;;;;;;4964462;28;20503;-51
2022/05/02 10:23:12;;;;;;;5.13;3.55;;;;;;;;;;4952975;28;20118;-51
2022/05/02 10:25:41;;;;;;;11.18;3.90;;;;;;;;;;4968488;28;20046;-53
2022/05/02 10:28:27;;;;;;;6.15;3.65;;;;;;;;;;4969602;28;20149;-55
2022/05/02 10:31:05;;;;;;;4.68;3.40;;;;;;;;;;4964447;28;20058;-53
2022/05/02 10:33:36;;;;;;;7.70;3.67;;;;;;;;;;4969224;28;20059;-53
2022/05/02 10:36:04;;;;;;;5.78;3.40;;;;;;;;;;4968836;28;20050;-55
2022/05/02 10:38:30;;;;;;;7.53;3.67;;;;;;;;;;4966494;28;20073;-54
2022/05/02 10:41:23;;;;;;;6.30;3.63;;;;;;;;;;4970413;28;20500;-48
2022/05/02 10:43:52;;;;;;;9.75;4.05;;;;;;;;;;4963047;28;20077;-55
2022/05/02 10:46:20;;;;;;;8.30;3.60;;;;;;;;;;4966520;28;21134;-53
2022/05/02 10:49:22;;;;;;;7.10;3.90;;;;;;;;;;4966185;28;20042;-52
2022/05/02 10:52:03;;;;;;;9.25;4.35;;;;;;;;;;4932508;28;20051;-53
2022/05/02 10:54:48;;;;;;;8.63;4.20;;;;;;;;;;4967429;28;20104;-55
2022/05/02 10:57:40;;;;;;;7.32;3.85;;;;;;;;;;4968104;28;20073;-52
2022/05/02 11:00:12;;;;;;;7.33;3.57;;;;;;;;;;4969403;28;20101;-56
2022/05/02 11:03:09;;;;;;;6.35;3.95;;;;;;;;;;4967708;28;20381;-55
2022/05/02 11:05:48;;;;;;;6.75;3.05;;;;;;;;;;4966741;28;20043;-53
2022/05/02 11:08:26;;;;;;;5.05;3.42;;;;;;;;;;4966592;28;20035;-51
2022/05/02 11:10:58;;;;;;;7.93;3.95;;;;;;;;;;4968698;28;20030;-53
2022/05/02 11:13:25;;;;;;;5.63;3.45;;;;;;;;;;4967353;28;20178;-52
2022/05/02 11:16:05;;;;;;;6.70;3.30;;;;;;;;;;4951702;28;20549;-50
2022/05/02 11:21:52;;;;;;;6.75;3.83;;;;;;;;;;4960670;28;20050;-56
2022/05/02 11:24:17;;;;;;;9.60;4.00;;;;;;;;;;4966809;28;20126;-55
2022/05/02 11:26:47;;;;;;;6.47;3.67;;;;;;;;;;4968798;28;20149;-54
2022/05/02 11:29:33;;;;;;;5.82;3.45;;;;;;;;;;4960359;28;20465;-53
2022/05/02 11:32:27;;;;;;;8.15;3.70;;;;;;;;;;4968126;28;20027;-54
2022/05/02 11:35:08;;;;;;;5.85;3.88;;;;;;;;;;4968016;28;20144;-55
2022/05/02 11:37:54;;;;;;;7.60;4.05;;;;;;;;;;4966117;28;20055;-57
2022/05/02 11:40:27;;;;;;;7.68;3.97;;;;;;;;;;4965768;28;20125;-55
2022/05/02 11:42:52;;;;;;;;;;;;;;;;;;4980553;28;20101;-54
2022/05/02 11:45:19;;;;;;;9.05;4.00;;;;;;;;;;4967748;28;19929;-52
2022/05/02 11:48:22;;;;;;;7.20;3.92;;;;;;;;;;4958509;28;20534;-54
2022/05/02 11:50:48;;;;;;;;;;;;;;;;;;4968438;28;20054;-50
2022/05/02 11:53:16;;;;;;;9.50;4.00;;;;;;;;;;4965377;28;20649;-51
2022/05/02 11:55:46;;;;;;;6.82;4.13;;;;;;;;;;4968758;28;20453;-52
2022/05/02 11:58:23;;;;;;;7.35;3.92;;;;;;;;;;4967103;28;20050;-55
2022/05/02 12:01:08;;;;;;;7.30;3.92;;;;;;;;;;4967060;28;20049;-52
2022/05/02 12:03:43;;;;;;;5.75;3.60;;;;;;;;;;4964506;28;20519;-53
2022/05/02 12:06:09;;;;;;;9.48;3.83;;;;;;;;;;4967011;28;20082;-53
2022/05/02 12:08:38;;;;;;;8.73;4.30;;;;;;;;;;4967810;28;20532;-53
2022/05/02 12:11:14;;;;;;;8.32;4.00;;;;;;;;;;4981541;28;20027;-52
2022/05/02 12:13:45;;;;;;;8.13;4.03;;;;;;;;;;4963629;28;20467;-51
2022/05/02 12:16:12;;;;;;;10.00;4.05;;;;;;;;;;4967594;28;20054;-54
2022/05/02 12:18:47;;;;;;;6.57;3.70;;;;;;;;;;4966103;28;20050;-55
2022/05/02 12:21:40;;;;;;;6.97;3.78;;;;;;;;;;4965814;28;20115;-52
2022/05/02 12:24:07;;;;;;;11.15;4.13;;;;;;;;;;4953186;28;20047;-55
2022/05/02 12:26:42;;;;;;;9.13;4.10;;;;;;;;;;4951342;28;20039;-54
2022/05/02 12:29:19;;;;;;;10.55;3.90;;;;;;;;;;4950331;28;20039;-54
2022/05/02 12:31:57;;;;;;;5.93;4.07;;;;;;;;;;4981003;28;20121;-54
2022/05/02 12:34:37;;;;;;;4.47;3.30;;;;;;;;;;4967531;28;20152;-55
2022/05/02 12:37:23;;;;;;;6.25;3.95;;;;;;;;;;4964520;28;20142;-52
2022/05/02 12:40:04;;;;;;;4.70;3.80;;;;;;;;;;4965416;28;20106;-53
2022/05/02 12:42:39;;;;;;;11.57;3.83;;;;;;;;;;4965591;28;20063;-52
2022/05/02 12:45:13;;;;;;;7.60;4.15;;;;;;;;;;4966636;28;20042;-52
2022/05/02 12:47:56;;;;;;;7.88;3.72;;;;;;;;;;4966973;28;20054;-52
2022/05/02 12:50:27;;;;;;;8.20;4.13;;;;;;;;;;4965814;28;20031;-53
2022/05/02 12:53:05;;;;;;;8.35;3.95;;;;;;;;;;4967073;28;20498;-51
2022/05/02 12:55:33;;;;;;;5.30;3.80;;;;;;;;;;4964799;28;20065;-53
2022/05/02 13:01:05;;;;;;;6.53;3.83;;;;;;;;;;4927021;28;20088;-52
2022/05/02 13:03:32;;;;;;;4.63;3.65;;;;;;;;;;4928520;29;20071;-54
2022/05/02 13:06:04;;;;;;;12.27;3.90;;;;;;;;;;4942223;28;20047;-55
2022/05/02 13:08:44;;;;;;;6.90;4.10;;;;;;;;;;4967023;28;20065;-54
2022/05/02 13:11:21;;;;;;;6.97;3.63;;;;;;;;;;4965449;28;20055;-51
2022/05/02 13:13:50;;;;;;;6.80;3.70;;;;;;;;;;4967236;28;20037;-52
2022/05/02 13:16:41;;;;;;;5.10;3.42;;;;;;;;;;4959501;28;20071;-54
2022/05/02 13:19:07;;;;;;;8.05;3.97;;;;;;;;;;4950259;28;20114;-55
2022/05/02 13:21:33;;;;;;;5.95;3.47;;;;;;;;;;4950736;28;20284;-53
2022/05/02 13:24:12;;;;;;;7.68;3.85;;;;;;;;;;4948593;28;20055;-54
2022/05/02 13:26:41;;;;;;;8.35;3.55;;;;;;;;;;4950385;28;20077;-54
2022/05/02 13:29:29;;;;;;;5.05;3.40;;;;;;;;;;4963248;28;20031;-53
2022/05/02 13:32:02;;;;;;;5.30;3.60;;;;;;;;;;4966127;28;20053;-54
2022/05/02 13:34:34;;;;;;;4.70;3.50;;;;;;;;;;4964913;28;20145;-52
2022/05/02 13:37:41;;;;;;;6.18;4.03;;;;;;;;;;4963541;28;20078;-54
2022/05/02 13:40:14;;;;;;;6.05;3.55;;;;;;;;;;4964332;28;20050;-54
2022/05/02 13:42:55;;;;;;;5.43;4.07;;;;;;;;;;4966369;28;20322;-49
2022/05/02 13:45:35;;;;;;;7.95;3.67;;;;;;;;;;4963707;28;20050;-54
2022/05/02 13:48:15;;;;;;;6.90;4.32;;;;;;;;;;4963101;28;20067;-52
2022/05/02 13:51:17;;;;;;;7.50;3.80;;;;;;;;;;4960338;28;20046;-55
2022/05/02 13:54:04;;;;;;;8.48;4.10;;;;;;;;;;4980074;28;20043;-53
2022/05/02 13:56:53;;;;;;;5.70;3.65;;;;;;;;;;4966055;28;20169;-52
2022/05/02 13:59:55;;;;;;;5.78;3.95;;;;;;;;;;4965504;28;20045;-55
2022/05/02 14:02:54;;;;;;;7.03;4.15;;;;;;;;;;4962848;28;20051;-51
2022/05/02 14:05:29;;;;;;;8.40;3.80;;;;;;;;;;4980469;28;20073;-54
2022/05/02 14:07:56;;;;;;;9.43;4.05;;;;;;;;;;4965216;28;20475;-56
2022/05/02 14:10:24;;;;;;;5.82;4.00;;;;;;;;;;4965775;28;20043;-52
2022/05/02 14:12:51;;;;;;;6.20;3.70;;;;;;;;;;4954270;28;20078;-52
2022/05/02 14:15:18;;;;;;;7.60;3.55;;;;;;;;;;4963540;28;20031;-55
2022/05/02 14:17:51;;;;;;;8.68;3.53;;;;;;;;;;4959034;28;20418;-56
2022/05/02 14:20:28;;;;;;;9.52;4.18;;;;;;;;;;4964997;28;20051;-56
2022/05/02 14:23:08;;;;;;;4.43;3.63;;;;;;;;;;4965188;28;20051;-54
2022/05/02 14:25:36;;;;;;;8.30;3.47;;;;;;;;;;4964869;28;20213;-54
2022/05/02 14:28:17;;;;;;;7.20;4.00;;;;;;;;;;4963994;28;20055;-54
2022/05/02 14:31:00;;;;;;;5.93;3.65;;;;;;;;;;4965424;28;20039;-53
2022/05/02 14:33:34;;;;;;;5.07;3.42;;;;;;;;;;4955751;28;20101;-54
2022/05/02 14:36:00;;;;;;;4.82;3.60;;;;;;;;;;4958855;28;20150;-54
2022/05/02 14:38:26;;;;;;;9.57;4.03;;;;;;;;;;4964121;28;20043;-54
2022/05/02 14:40:52;;;;;;;5.70;4.03;;;;;;;;;;4956414;28;20070;-52
2022/05/02 14:43:19;;;;;;;6.03;3.92;;;;;;;;;;4953182;28;20105;-54
2022/05/02 14:45:46;;;;;;;5.18;3.60;;;;;;;;;;4969160;28;20033;-57
2022/05/02 14:48:16;;;;;;;6.90;3.70;;;;;;;;;;4969318;28;20031;-52
2022/05/02 14:50:44;;;;;;;6.53;3.65;;;;;;;;;;4970900;28;20046;-59
2022/05/02 14:53:12;;;;;;;5.78;3.75;;;;;;;;;;4961047;28;20440;-59
2022/05/02 14:55:45;;;;;;;5.72;4.00;;;;;;;;;;4970016;28;20051;-60
2022/05/02 14:58:17;;;;;;;8.02;3.75;;;;;;;;;;4969289;28;20061;-59
2022/05/02 15:00:56;;;;;;;5.38;3.50;;;;;;;;;;4984504;28;20138;-60
2022/05/02 15:03:27;;;;;;;7.15;3.60;;;;;;;;;;4971139;28;20121;-60
2022/05/02 15:05:54;;;;;;;6.75;3.35;;;;;;;;;;4967119;28;20380;-59
2022/05/02 15:08:43;;;;;;;6.63;3.67;;;;;;;;;;4966138;28;20049;-59
2022/05/02 15:11:16;;;;;;;5.20;3.50;;;;;;;;;;4965828;28;20043;-60
2022/05/02 15:13:51;;;;;;;6.20;3.85;;;;;;;;;;4960748;28;20039;-60
2022/05/02 15:16:38;;;;;;;8.75;3.13;;;;;;;;;;4965717;28;20457;-60
2022/05/02 15:19:37;;;;;;;7.68;3.40;;;;;;;;;;4967800;28;20385;-60
2022/05/02 15:22:30;;;;;;;5.85;3.47;;;;;;;;;;4966705;28;20479;-59
2022/05/02 15:25:07;;;;;;;5.47;3.58;;;;;;;;;;4964028;28;20050;-59
2022/05/02 15:39:26;;;;;;;7.45;3.65;;;;;;;;;;4966551;28;20161;-60
2022/05/02 15:41:54;;;;;;;5.63;3.15;;;;;;;;;;4968437;28;20185;-59
2022/05/02 15:44:23;;;;;;;7.65;3.28;;;;;;;;;;4958468;28;20062;-60
2022/05/02 15:46:52;;;;;;;6.07;3.47;;;;;;;;;;4965717;28;20038;-59
2022/05/02 15:49:19;;;;;;;5.07;3.35;;;;;;;;;;4967328;28;20472;-59
2022/05/02 15:51:47;;;;;;;5.55;3.42;;;;;;;;;;4970666;28;20085;-60
2022/05/02 15:54:18;;;;;;;5.88;3.50;;;;;;;;;;4964279;28;20066;-59
2022/05/02 15:57:14;;;;;;;4.63;3.20;;;;;;;;;;4966789;28;20047;-59
2022/05/02 15:59:44;;;;;;;4.50;2.95;;;;;;;;;;4964210;28;20126;-60
2022/05/02 16:02:11;;;;;;;7.13;3.25;;;;;;;;;;4964860;28;20059;-60
2022/05/02 16:04:52;;;;;;;4.45;3.28;;;;;;;;;;4965691;28;20091;-60